Time;durP1;ratioP1;P1;durP2;ratioP2;P2;SDS_P1;SDS_P2;PMS_P1;PMS_P2;Temp;Humidity;BMP_temperature;BMP_pressure;BME280_temperature;BME280_humidity;BME280_pressure;Samples;Min_cycle;Max_cycle;Signal;HPM_P1;HPM_P2
2021/08/10 00:00:21;;;;;;;2.72;1.27;;;14.10;99.90;;;;;;5086694;28;20065;-79
2021/08/10 00:02:47;;;;;;;3.33;1.90;;;14.10;99.90;;;;;;5098366;28;20055;-79
2021/08/10 00:05:12;;;;;;;2.88;1.45;;;14.10;99.90;;;;;;5094545;28;20040;-77
2021/08/10 00:07:38;;;;;;;2.13;1.60;;;14.10;99.90;;;;;;5075674;28;20048;-79
2021/08/10 00:10:05;;;;;;;;;;;14.10;99.90;;;;;;5094532;28;20473;-79
2021/08/10 00:12:31;;;;;;;1.67;1.47;;;14.10;99.90;;;;;;5078244;28;20018;-79
2021/08/10 00:14:57;;;;;;;5.18;2.65;;;14.10;99.90;;;;;;5105688;28;20036;-78
2021/08/10 00:17:23;;;;;;;3.70;1.45;;;14.10;99.90;;;;;;5093298;28;20036;-78
2021/08/10 00:19:49;;;;;;;1.73;1.42;;;14.10;99.90;;;;;;5093687;28;20043;-79
2021/08/10 00:22:14;;;;;;;3.35;2.08;;;14.10;99.90;;;;;;5099292;28;20074;-77
2021/08/10 00:24:40;;;;;;;3.80;1.23;;;14.10;99.90;;;;;;5113282;28;20389;-77
2021/08/10 00:27:06;;;;;;;1.98;1.65;;;14.10;99.90;;;;;;5100854;28;20099;-77
2021/08/10 00:29:32;;;;;;;1.48;1.38;;;14.10;99.90;;;;;;5099244;28;20051;-77
2021/08/10 00:31:57;;;;;;;1.85;1.75;;;14.10;99.90;;;;;;5110794;28;20036;-77
2021/08/10 00:34:23;;;;;;;1.83;1.42;;;14.10;99.90;;;;;;5095499;28;20028;-77
2021/08/10 00:36:49;;;;;;;3.00;1.60;;;14.20;99.90;;;;;;5097727;28;20085;-77
2021/08/10 00:39:15;;;;;;;3.28;2.30;;;14.20;99.90;;;;;;5075726;28;20491;-79
2021/08/10 00:41:41;;;;;;;;;;;14.20;99.90;;;;;;5101524;28;20036;-80
2021/08/10 00:44:09;;;;;;;1.70;1.48;;;14.20;99.90;;;;;;5096690;28;20333;-80
2021/08/10 00:46:35;;;;;;;4.07;2.58;;;14.20;99.90;;;;;;5104842;28;20036;-79
2021/08/10 00:49:01;;;;;;;3.78;2.22;;;14.20;99.90;;;;;;5077909;28;20470;-79
2021/08/10 00:51:26;;;;;;;2.58;2.05;;;14.20;99.90;;;;;;5092238;28;20097;-78
2021/08/10 00:53:52;;;;;;;2.10;1.80;;;14.10;99.90;;;;;;5108209;27;20473;-79
2021/08/10 00:56:18;;;;;;;;;;;14.10;99.90;;;;;;5094277;28;20035;-80
2021/08/10 00:58:44;;;;;;;3.38;1.42;;;14.10;99.90;;;;;;5098131;28;20387;-79
2021/08/10 01:01:10;;;;;;;2.78;2.05;;;14.10;99.90;;;;;;5113298;28;20031;-78
2021/08/10 01:03:35;;;;;;;4.40;2.40;;;14.10;99.90;;;;;;5105419;28;20044;-79
2021/08/10 01:06:06;;;;;;;0.93;0.93;;;14.10;99.90;;;;;;5075854;28;20032;-79
2021/08/10 01:08:32;;;;;;;7.78;1.63;;;14.10;99.90;;;;;;5093652;28;20059;-79
2021/08/10 01:11:52;;;;;;;4.88;2.38;;;14.10;99.90;;;;;;5091668;28;20401;-80
2021/08/10 01:14:42;;;;;;;1.70;1.23;;;14.10;99.90;;;;;;5092610;28;20562;-81
2021/08/10 01:17:24;;;;;;;3.40;1.80;;;14.10;99.90;;;;;;5097897;28;20102;-80
2021/08/10 01:19:55;;;;;;;3.67;1.35;;;14.10;99.90;;;;;;5096731;28;20067;-79
2021/08/10 01:22:22;;;;;;;1.35;1.20;;;14.10;99.90;;;;;;5075124;28;20469;-79
2021/08/10 01:25:09;;;;;;;2.67;1.55;;;14.00;99.90;;;;;;5102237;28;20036;-79
2021/08/10 01:28:05;;;;;;;2.72;1.20;;;14.00;99.90;;;;;;5084444;28;20048;-79
2021/08/10 01:31:05;;;;;;;2.88;1.65;;;14.00;99.90;;;;;;5092205;28;20111;-78
2021/08/10 01:33:37;;;;;;;1.52;1.42;;;14.00;99.90;;;;;;5108087;28;20032;-76
2021/08/10 01:36:06;;;;;;;2.30;1.10;;;14.00;99.90;;;;;;5087111;28;20468;-77
2021/08/10 01:38:34;;;;;;;1.75;1.63;;;14.00;99.90;;;;;;5093008;28;20039;-77
2021/08/10 01:41:01;;;;;;;3.53;2.17;;;14.00;99.90;;;;;;5096063;28;20081;-77
2021/08/10 01:43:29;;;;;;;5.35;2.63;;;14.00;99.90;;;;;;5078612;28;20039;-77
2021/08/10 01:45:58;;;;;;;2.40;1.50;;;14.00;99.90;;;;;;5108531;28;20068;-76
2021/08/10 01:48:27;;;;;;;1.88;1.67;;;14.00;99.90;;;;;;5091830;28;20168;-77
2021/08/10 01:50:54;;;;;;;2.90;1.90;;;14.00;99.90;;;;;;5080823;28;20035;-76
2021/08/10 01:53:22;;;;;;;2.45;1.70;;;14.00;99.90;;;;;;5107267;28;20036;-78
2021/08/10 01:55:49;;;;;;;3.00;1.63;;;14.00;99.90;;;;;;5100050;28;20036;-77
2021/08/10 01:58:16;;;;;;;5.13;2.25;;;14.00;99.90;;;;;;5092665;28;20088;-78
2021/08/10 02:00:45;;;;;;;3.15;2.40;;;13.90;99.90;;;;;;5092347;28;20041;-78
2021/08/10 02:03:13;;;;;;;1.65;1.00;;;13.90;99.90;;;;;;5105313;28;20507;-77
2021/08/10 02:05:42;;;;;;;2.42;1.77;;;14.00;99.90;;;;;;5093536;28;20032;-78
2021/08/10 02:08:09;;;;;;;2.67;1.85;;;14.00;99.90;;;;;;5091700;28;20056;-78
2021/08/10 02:10:36;;;;;;;1.73;1.63;;;14.00;99.90;;;;;;5073471;28;20036;-78
2021/08/10 02:13:02;;;;;;;;;;;14.10;99.90;;;;;;5091467;28;20036;-79
2021/08/10 02:15:29;;;;;;;4.22;2.72;;;14.10;99.90;;;;;;5078500;28;19924;-79
2021/08/10 02:17:54;;;;;;;2.53;2.20;;;14.20;99.90;;;;;;5092306;28;20073;-79
2021/08/10 02:20:20;;;;;;;2.42;2.15;;;14.20;99.90;;;;;;5074472;28;20040;-79
2021/08/10 02:22:48;;;;;;;2.17;1.88;;;14.20;99.90;;;;;;5090376;28;20485;-78
2021/08/10 02:25:20;;;;;;;3.40;1.65;;;14.30;99.90;;;;;;5077711;28;20654;-81
2021/08/10 02:27:51;;;;;;;2.40;1.77;;;14.30;99.90;;;;;;5073925;28;20386;-78
2021/08/10 02:30:21;;;;;;;4.20;1.75;;;14.20;99.90;;;;;;5091918;28;20042;-79
2021/08/10 02:32:49;;;;;;;1.67;1.30;;;14.20;99.90;;;;;;5090307;28;20469;-79
2021/08/10 02:35:22;;;;;;;2.72;1.92;;;14.10;99.90;;;;;;5072089;28;20043;-79
2021/08/10 02:37:49;;;;;;;1.40;1.20;;;14.10;99.90;;;;;;5092313;28;20040;-79
2021/08/10 02:40:17;;;;;;;4.05;1.83;;;14.10;99.90;;;;;;5107877;28;20062;-79
2021/08/10 02:42:56;;;;;;;4.05;2.53;;;14.10;99.90;;;;;;5100231;28;20071;-79
2021/08/10 02:45:22;;;;;;;3.63;2.35;;;14.10;99.90;;;;;;5096517;28;20039;-78
2021/08/10 02:47:57;;;;;;;2.70;1.83;;;14.10;99.90;;;;;;5096984;28;20442;-79
2021/08/10 02:50:26;;;;;;;2.42;1.92;;;14.10;99.90;;;;;;5091013;28;20054;-79
2021/08/10 02:52:52;;;;;;;9.38;2.80;;;14.20;99.90;;;;;;5096298;28;20090;-78
2021/08/10 02:55:20;;;;;;;3.58;1.55;;;14.20;99.90;;;;;;5091905;28;20115;-78
2021/08/10 02:58:01;;;;;;;3.15;2.47;;;14.20;99.90;;;;;;5104162;28;20089;-79
2021/08/10 03:00:30;;;;;;;2.85;1.88;;;14.20;99.90;;;;;;5093680;28;20040;-78
2021/08/10 03:03:01;;;;;;;3.35;1.83;;;14.20;99.90;;;;;;5107022;28;20126;-77
2021/08/10 03:05:29;;;;;;;2.35;2.08;;;14.10;99.90;;;;;;5100152;28;20043;-77
2021/08/10 03:08:02;;;;;;;2.78;2.00;;;14.10;99.90;;;;;;5094767;28;20457;-77
2021/08/10 03:10:32;;;;;;;2.20;1.73;;;14.10;99.90;;;;;;5095065;28;20070;-77
2021/08/10 03:13:02;;;;;;;2.67;2.40;;;14.10;99.90;;;;;;5091503;28;20038;-78
2021/08/10 03:15:31;;;;;;;3.17;2.08;;;14.10;99.90;;;;;;5091167;28;20082;-79
2021/08/10 03:18:03;;;;;;;4.40;2.92;;;14.00;99.90;;;;;;5074230;28;20044;-77
2021/08/10 03:20:32;;;;;;;2.65;2.15;;;14.00;99.90;;;;;;5105711;28;20036;-77
2021/08/10 03:22:59;;;;;;;5.47;1.85;;;13.90;99.90;;;;;;5092423;28;20062;-77
2021/08/10 03:25:26;;;;;;;1.58;1.35;;;13.90;99.90;;;;;;5111123;28;20422;-77
2021/08/10 03:27:53;;;;;;;6.60;2.58;;;13.90;99.90;;;;;;5104597;28;20040;-77
2021/08/10 03:30:19;;;;;;;3.30;2.17;;;14.20;99.90;;;;;;5105439;28;20450;-77
2021/08/10 03:32:50;;;;;;;5.68;2.42;;;13.90;99.90;;;;;;5106680;28;20036;-79
2021/08/10 03:35:17;;;;;;;2.15;1.55;;;13.90;99.90;;;;;;5094382;28;20081;-77
2021/08/10 03:37:44;;;;;;;2.97;1.88;;;13.90;99.90;;;;;;5098734;28;20129;-79
2021/08/10 03:40:11;;;;;;;2.22;1.40;;;13.90;99.90;;;;;;5093102;28;20488;-78
2021/08/10 03:42:38;;;;;;;6.88;2.08;;;13.90;99.90;;;;;;5101058;28;20032;-78
2021/08/10 03:45:05;;;;;;;2.33;1.60;;;13.90;99.90;;;;;;5093949;28;20036;-77
2021/08/10 03:47:32;;;;;;;1.67;1.25;;;13.90;99.90;;;;;;5111875;28;20043;-78
2021/08/10 03:50:00;;;;;;;2.75;2.05;;;13.90;99.90;;;;;;5114047;28;20043;-79
2021/08/10 03:52:30;;;;;;;1.60;1.50;;;13.90;99.90;;;;;;5095411;28;20031;-79
2021/08/10 03:54:56;;;;;;;1.67;1.58;;;13.90;99.90;;;;;;5109594;28;20044;-77
2021/08/10 03:57:23;;;;;;;2.30;1.80;;;13.90;99.90;;;;;;5087225;28;20038;-78
2021/08/10 03:59:53;;;;;;;2.42;1.92;;;14.00;99.90;;;;;;5097307;28;20114;-78
2021/08/10 04:02:20;;;;;;;2.55;1.83;;;14.20;99.90;;;;;;5101963;28;20081;-78
2021/08/10 04:04:51;;;;;;;3.42;2.28;;;14.00;99.90;;;;;;5109064;28;20401;-77
2021/08/10 04:07:19;;;;;;;2.17;1.63;;;14.00;99.90;;;;;;5098682;28;20080;-78
2021/08/10 04:09:45;;;;;;;1.25;1.15;;;14.00;99.90;;;;;;5113666;28;20052;-78
2021/08/10 04:12:11;;;;;;;;;;;14.00;99.90;;;;;;5083259;28;20120;-79
2021/08/10 04:14:39;;;;;;;2.75;2.05;;;14.00;99.90;;;;;;5093379;28;19920;-83
2021/08/10 04:17:06;;;;;;;2.08;1.88;;;14.00;99.90;;;;;;5092586;28;20036;-80
2021/08/10 04:19:35;;;;;;;3.55;1.90;;;14.10;99.90;;;;;;5100313;28;20067;-79
2021/08/10 04:22:03;;;;;;;1.88;1.15;;;14.10;99.90;;;;;;5107062;28;20116;-79
2021/08/10 04:24:29;;;;;;;1.95;1.67;;;14.20;99.90;;;;;;5094532;28;20036;-79
2021/08/10 04:26:55;;;;;;;;;;;14.20;99.90;;;;;;5097327;28;20028;-79
2021/08/10 04:29:21;;;;;;;6.70;2.38;;;14.20;99.90;;;;;;5078133;28;19928;-79
2021/08/10 04:31:47;;;;;;;1.95;1.75;;;14.20;99.90;;;;;;5098848;28;20060;-78
2021/08/10 04:34:13;;;;;;;3.80;2.42;;;14.30;99.90;;;;;;5109688;28;20053;-77
2021/08/10 04:36:39;;;;;;;;;;;14.30;99.90;;;;;;5108744;28;20040;-77
2021/08/10 04:39:05;;;;;;;2.30;2.10;;;14.30;99.90;;;;;;5113262;28;20076;-79
2021/08/10 04:41:31;;;;;;;;;;;14.30;99.90;;;;;;5108464;28;20172;-77
2021/08/10 04:43:57;;;;;;;2.25;1.55;;;14.40;99.90;;;;;;5111070;28;20002;-78
2021/08/10 04:46:25;;;;;;;3.08;2.38;;;14.40;99.90;;;;;;5102970;28;20068;-78
2021/08/10 04:48:51;;;;;;;2.75;1.45;;;14.40;99.90;;;;;;5085386;28;20421;-79
2021/08/10 04:51:17;;;;;;;3.25;1.65;;;14.40;99.90;;;;;;5104108;28;20465;-79
2021/08/10 04:53:43;;;;;;;1.92;1.60;;;14.40;99.90;;;;;;5117896;27;20040;-80
2021/08/10 04:56:09;;;;;;;2.78;2.05;;;14.40;99.90;;;;;;5112494;28;20034;-80
2021/08/10 04:58:39;;;;;;;2.08;1.35;;;14.40;99.90;;;;;;5108539;28;20036;-80
2021/08/10 05:01:05;;;;;;;3.15;1.98;;;14.50;99.90;;;;;;5111949;28;20035;-79
2021/08/10 05:03:31;;;;;;;;;;;14.60;99.90;;;;;;5089059;28;20274;-79
2021/08/10 05:05:58;;;;;;;3.05;2.00;;;14.60;99.90;;;;;;5108739;28;19922;-78
2021/08/10 05:08:24;;;;;;;3.03;2.28;;;14.60;99.90;;;;;;5110803;28;20051;-78
2021/08/10 05:10:50;;;;;;;3.38;2.53;;;14.70;99.90;;;;;;5108867;28;20115;-79
2021/08/10 05:13:16;;;;;;;4.90;2.78;;;14.70;99.90;;;;;;5094922;28;20067;-80
2021/08/10 05:15:41;;;;;;;;;;;14.70;99.90;;;;;;5091850;28;20194;-79
2021/08/10 05:18:08;;;;;;;4.25;1.88;;;14.80;99.90;;;;;;5111331;28;19920;-79
2021/08/10 05:20:34;;;;;;;2.28;1.67;;;14.80;99.90;;;;;;5092929;28;20114;-80
2021/08/10 05:23:00;;;;;;;1.83;1.67;;;14.70;99.90;;;;;;5101184;28;20119;-78
2021/08/10 05:25:26;;;;;;;3.10;1.95;;;14.80;99.90;;;;;;5109954;28;20040;-80
2021/08/10 05:27:52;;;;;;;3.28;2.05;;;14.80;99.90;;;;;;5099910;28;20396;-82
2021/08/10 05:30:19;;;;;;;1.60;1.48;;;14.80;99.90;;;;;;5082613;28;20056;-81
2021/08/10 05:32:45;;;;;;;8.30;2.25;;;14.80;99.90;;;;;;5102542;28;20031;-82
2021/08/10 05:35:11;;;;;;;2.10;1.60;;;14.80;99.90;;;;;;5101660;28;20058;-81
2021/08/10 05:37:37;;;;;;;2.50;2.25;;;14.70;99.90;;;;;;5093477;28;20392;-82
2021/08/10 05:40:03;;;;;;;3.22;2.13;;;14.70;99.90;;;;;;5103860;28;20040;-82
2021/08/10 05:42:29;;;;;;;1.95;1.63;;;14.70;99.90;;;;;;5095777;27;20800;-82
2021/08/10 05:44:54;;;;;;;4.85;2.78;;;14.70;99.90;;;;;;5099186;28;20152;-81
2021/08/10 05:47:20;;;;;;;;;;;14.70;99.90;;;;;;5090503;28;20279;-83
2021/08/10 05:49:46;;;;;;;3.30;1.80;;;14.70;99.90;;;;;;5071841;28;20411;-82
2021/08/10 05:52:12;;;;;;;2.83;2.17;;;14.70;99.90;;;;;;5074186;28;20051;-82
2021/08/10 05:54:38;;;;;;;2.42;1.40;;;14.70;99.90;;;;;;5071197;28;20036;-82
2021/08/10 05:57:05;;;;;;;3.42;2.22;;;14.80;99.90;;;;;;5085302;28;20035;-82
2021/08/10 05:59:31;;;;;;;2.83;2.28;;;14.90;99.90;;;;;;5096001;28;20040;-81
2021/08/10 06:01:59;;;;;;;;;;;14.90;99.90;;;;;;5095439;28;20154;-81
2021/08/10 06:04:25;;;;;;;2.55;1.55;;;15.00;99.90;;;;;;5094442;28;19962;-81
2021/08/10 06:06:52;;;;;;;2.83;1.70;;;15.10;99.90;;;;;;5095123;28;20477;-82
2021/08/10 06:09:17;;;;;;;2.65;1.80;;;15.20;99.90;;;;;;5087373;28;20079;-82
2021/08/10 06:11:43;;;;;;;4.72;2.13;;;15.30;99.90;;;;;;5088183;28;20036;-82
2021/08/10 06:14:09;;;;;;;;;;;15.40;99.90;;;;;;5089917;27;20044;-83
2021/08/10 06:16:34;;;;;;;3.97;2.70;;;15.50;99.90;;;;;;5093345;28;20246;-83
2021/08/10 06:19:01;;;;;;;2.70;2.15;;;15.50;99.90;;;;;;5096057;28;20048;-82
2021/08/10 06:21:27;;;;;;;3.40;2.20;;;15.60;99.90;;;;;;5072017;28;20043;-82
2021/08/10 06:23:53;;;;;;;2.97;2.20;;;15.50;99.90;;;;;;5078322;28;20082;-81
2021/08/10 06:26:20;;;;;;;3.50;2.25;;;15.50;99.90;;;;;;5092199;28;20024;-81
2021/08/10 06:28:46;;;;;;;2.20;1.50;;;15.40;99.90;;;;;;5100935;28;20054;-81
2021/08/10 06:31:12;;;;;;;6.53;2.63;;;15.30;99.90;;;;;;5088583;28;20040;-81
2021/08/10 06:33:38;;;;;;;8.30;1.77;;;15.20;99.90;;;;;;5106432;28;20132;-81
2021/08/10 06:36:04;;;;;;;3.50;2.47;;;15.10;99.90;;;;;;5093024;28;20036;-82
2021/08/10 06:38:31;;;;;;;2.60;1.90;;;15.10;99.90;;;;;;5107443;28;20082;-80
2021/08/10 06:40:56;;;;;;;;;;;15.20;99.90;;;;;;5107025;28;20054;-81
2021/08/10 06:43:22;;;;;;;3.83;2.28;;;15.20;99.90;;;;;;5097884;28;19920;-81
2021/08/10 06:45:48;;;;;;;4.15;3.05;;;15.20;99.90;;;;;;5106832;28;20047;-80
2021/08/10 06:48:14;;;;;;;3.28;2.30;;;15.30;99.90;;;;;;5096035;28;20090;-81
2021/08/10 06:50:40;;;;;;;;;;;15.60;99.90;;;;;;5083213;28;20039;-80
2021/08/10 06:53:07;;;;;;;4.32;2.90;;;15.80;99.90;;;;;;5106184;28;20377;-80
2021/08/10 06:55:33;;;;;;;3.25;2.53;;;16.20;99.90;;;;;;5083798;28;20159;-81
2021/08/10 06:57:59;;;;;;;;;;;16.50;99.90;;;;;;5088033;28;20426;-80
2021/08/10 07:00:25;;;;;;;11.32;2.65;;;16.80;99.90;;;;;;5080602;28;19924;-80
2021/08/10 07:02:51;;;;;;;4.38;2.78;;;16.80;99.90;;;;;;5079624;28;20100;-81
2021/08/10 07:05:17;;;;;;;3.30;2.10;;;16.70;99.90;;;;;;5087518;28;20698;-81
2021/08/10 07:07:43;;;;;;;4.18;2.72;;;16.60;99.90;;;;;;5099375;28;20044;-80
2021/08/10 07:10:10;;;;;;;2.20;1.65;;;16.60;99.90;;;;;;5111780;28;20084;-79
2021/08/10 07:12:35;;;;;;;1.92;1.52;;;16.50;99.90;;;;;;5090099;27;20506;-79
2021/08/10 07:15:01;;;;;;;4.82;1.75;;;16.60;99.90;;;;;;5109612;28;20036;-79
2021/08/10 07:17:27;;;;;;;;;;;16.70;99.90;;;;;;5102131;28;20135;-77
2021/08/10 07:19:53;;;;;;;2.92;1.75;;;16.70;99.90;;;;;;5108691;28;20042;-79
2021/08/10 07:22:18;;;;;;;;;;;16.60;99.90;;;;;;5107593;28;20041;-78
2021/08/10 07:24:44;;;;;;;2.45;2.05;;;16.60;99.90;;;;;;5107363;28;20019;-79
2021/08/10 07:27:10;;;;;;;3.80;1.90;;;16.50;99.90;;;;;;5108346;28;20032;-78
2021/08/10 07:29:35;;;;;;;;;;;16.40;99.90;;;;;;5109381;28;20481;-81
2021/08/10 07:32:01;;;;;;;1.80;1.15;;;16.40;99.90;;;;;;5108383;28;20288;-79
2021/08/10 07:34:27;;;;;;;2.30;1.83;;;16.40;99.90;;;;;;5092880;28;20546;-79
2021/08/10 07:36:53;;;;;;;;;;;16.40;99.90;;;;;;5088754;28;20105;-80
2021/08/10 07:39:19;;;;;;;2.35;1.90;;;16.40;99.90;;;;;;5110386;28;19920;-81
2021/08/10 07:41:44;;;;;;;;;;;16.40;99.90;;;;;;5097910;28;20052;-78
2021/08/10 07:44:10;;;;;;;1.58;1.20;;;16.50;99.90;;;;;;5115473;27;19926;-80
2021/08/10 07:46:36;;;;;;;1.30;1.10;;;16.50;99.90;;;;;;5092264;28;20066;-80
2021/08/10 07:49:02;;;;;;;;;;;16.60;99.90;;;;;;5083509;28;20465;-78
2021/08/10 07:51:28;;;;;;;4.82;1.98;;;16.60;99.90;;;;;;5107018;28;19959;-78
2021/08/10 07:53:54;;;;;;;2.15;1.95;;;16.70;99.90;;;;;;5109782;28;20042;-79
2021/08/10 07:56:20;;;;;;;1.52;1.30;;;16.80;99.90;;;;;;5081642;28;20036;-78
2021/08/10 07:58:46;;;;;;;1.15;1.08;;;16.80;99.90;;;;;;5110762;28;20052;-76
2021/08/10 08:01:12;;;;;;;1.15;1.05;;;16.80;99.90;;;;;;5103106;28;20092;-77
2021/08/10 08:03:38;;;;;;;;;;;17.00;99.90;;;;;;5109077;28;20100;-76
2021/08/10 08:06:04;;;;;;;2.78;1.35;;;17.10;99.90;;;;;;5110619;28;19920;-77
2021/08/10 08:08:30;;;;;;;;;;;17.40;99.90;;;;;;5109517;28;20047;-76
2021/08/10 08:10:57;;;;;;;1.45;1.13;;;17.50;99.90;;;;;;5107786;28;19930;-78
2021/08/10 08:13:24;;;;;;;5.53;1.50;;;17.60;99.90;;;;;;5110170;27;20041;-77
2021/08/10 08:15:51;;;;;;;1.30;0.82;;;17.70;99.90;;;;;;5108749;28;20063;-79
2021/08/10 08:18:17;;;;;;;1.10;1.00;;;17.80;99.90;;;;;;5090080;28;20074;-77
2021/08/10 08:20:44;;;;;;;1.80;1.08;;;17.80;99.90;;;;;;5103563;28;20051;-77
2021/08/10 08:23:10;;;;;;;2.40;1.55;;;17.80;99.90;;;;;;5109975;28;20092;-78
2021/08/10 08:25:35;;;;;;;;;;;17.70;99.90;;;;;;5110752;28;20048;-77
2021/08/10 08:28:03;;;;;;;1.40;1.30;;;17.60;99.90;;;;;;5110027;28;20050;-78
2021/08/10 08:30:32;;;;;;;1.25;1.00;;;17.40;99.90;;;;;;5071582;28;20054;-78
2021/08/10 08:32:58;;;;;;;3.47;1.48;;;17.20;99.90;;;;;;5105141;28;20032;-78
2021/08/10 08:35:24;;;;;;;5.53;1.52;;;17.00;99.90;;;;;;5106435;28;20040;-79
2021/08/10 08:37:50;;;;;;;2.38;1.73;;;16.90;99.90;;;;;;5106738;28;20435;-79
2021/08/10 08:40:18;;;;;;;2.40;2.05;;;17.00;99.90;;;;;;5109779;28;20044;-77
2021/08/10 08:42:43;;;;;;;3.42;1.50;;;17.10;99.90;;;;;;5111269;27;20085;-78
2021/08/10 08:45:10;;;;;;;2.30;1.88;;;17.30;99.90;;;;;;5092433;28;20477;-78
2021/08/10 08:47:38;;;;;;;3.45;2.55;;;17.60;99.90;;;;;;5117619;27;20393;-77
2021/08/10 08:50:05;;;;;;;3.00;1.70;;;17.80;99.90;;;;;;5109479;28;20048;-78
2021/08/10 08:52:32;;;;;;;2.40;1.67;;;17.90;99.90;;;;;;5104641;28;20508;-77
2021/08/10 08:55:00;;;;;;;3.42;2.40;;;18.00;99.90;;;;;;5104605;28;20523;-79
2021/08/10 08:57:28;;;;;;;2.72;1.33;;;18.20;99.90;;;;;;5105585;28;20066;-79
2021/08/10 08:59:54;;;;;;;2.47;1.83;;;18.30;99.90;;;;;;5107790;28;20036;-78
2021/08/10 09:02:20;;;;;;;3.05;2.13;;;18.40;99.90;;;;;;5096883;28;20042;-76
2021/08/10 09:04:46;;;;;;;;;;;18.60;99.90;;;;;;5110144;28;20043;-76
2021/08/10 09:07:12;;;;;;;2.20;1.60;;;18.70;99.90;;;;;;5109646;28;19915;-79
2021/08/10 09:09:38;;;;;;;;;;;18.90;99.90;;;;;;5108923;28;20299;-78
2021/08/10 09:12:16;;;;;;;3.45;1.83;;;18.90;99.90;;;;;;5106714;28;20037;-77
2021/08/10 09:15:00;;;;;;;3.17;1.90;;;19.10;99.90;;;;;;5100625;28;20043;-77
2021/08/10 09:17:26;;;;;;;1.92;1.55;;;19.50;99.90;;;;;;5102701;28;20054;-77
2021/08/10 09:19:53;;;;;;;;;;;19.70;99.90;;;;;;5087959;28;20028;-78
2021/08/10 09:22:21;;;;;;;2.67;1.90;;;19.80;99.90;;;;;;5108885;28;19927;-77
2021/08/10 09:25:00;;;;;;;2.88;2.05;;;19.80;99.90;;;;;;5091523;28;20050;-79
2021/08/10 09:27:37;;;;;;;1.48;1.38;;;19.70;99.90;;;;;;5109810;28;20043;-78
2021/08/10 09:30:06;;;;;;;2.90;2.08;;;19.60;99.90;;;;;;5103305;28;20477;-78
2021/08/10 09:32:32;;;;;;;1.83;1.65;;;19.60;99.90;;;;;;5107319;28;20165;-78
2021/08/10 09:35:09;;;;;;;2.53;2.08;;;19.60;99.90;;;;;;5108371;28;20118;-77
2021/08/10 09:37:35;;;;;;;1.77;1.48;;;19.40;99.90;;;;;;5088512;28;20697;-78
2021/08/10 09:40:27;;;;;;;4.70;2.42;;;19.30;99.90;;;;;;5109092;28;20103;-78
2021/08/10 09:42:53;;;;;;;1.98;1.67;;;19.30;99.90;;;;;;5105114;28;20039;-77
2021/08/10 09:45:18;;;;;;;;;;;19.10;99.90;;;;;;5109476;28;20549;-77
2021/08/10 09:47:44;;;;;;;1.58;1.38;;;19.00;99.90;;;;;;5106577;28;19926;-78
2021/08/10 09:50:17;;;;;;;;;;;19.00;99.90;;;;;;5091192;28;20477;-77
2021/08/10 09:52:44;;;;;;;2.97;1.58;;;19.00;99.90;;;;;;5108572;28;19956;-77
2021/08/10 09:55:14;;;;;;;2.00;1.75;;;19.10;99.90;;;;;;5098274;28;20044;-77
2021/08/10 09:57:43;;;;;;;3.67;2.10;;;19.20;99.90;;;;;;5101067;28;20046;-76
2021/08/10 10:00:10;;;;;;;1.80;1.60;;;19.40;99.90;;;;;;5108666;28;20031;-77
2021/08/10 10:02:36;;;;;;;2.63;2.03;;;19.70;99.90;;;;;;5103363;28;20038;-78
2021/08/10 10:05:02;;;;;;;2.45;1.83;;;19.90;99.90;;;;;;5102416;28;20039;-78
2021/08/10 10:07:28;;;;;;;2.45;1.98;;;19.90;99.90;;;;;;5099563;28;20039;-78
2021/08/10 10:09:55;;;;;;;2.78;1.85;;;20.00;99.90;;;;;;5101239;28;20072;-78
2021/08/10 10:12:24;;;;;;;1.85;1.40;;;20.20;99.90;;;;;;5104852;28;20093;-78
2021/08/10 10:14:55;;;;;;;1.88;1.55;;;20.50;99.90;;;;;;5108628;28;20778;-79
2021/08/10 10:17:23;;;;;;;1.40;1.20;;;20.60;99.90;;;;;;5089909;28;20042;-78
2021/08/10 10:19:49;;;;;;;1.70;1.38;;;20.70;99.90;;;;;;5097502;28;20039;-79
2021/08/10 10:22:22;;;;;;;3.45;1.23;;;20.90;99.90;;;;;;5084991;28;20075;-78
2021/08/10 10:24:51;;;;;;;2.25;1.65;;;21.30;99.90;;;;;;5084106;28;20184;-79
2021/08/10 10:27:18;;;;;;;1.60;1.25;;;21.60;99.90;;;;;;5103848;28;20040;-78
2021/08/10 10:29:47;;;;;;;1.15;1.05;;;21.30;99.90;;;;;;5084228;28;20172;-78
2021/08/10 10:32:13;;;;;;;2.25;1.40;;;20.90;99.90;;;;;;5067817;28;20544;-78
2021/08/10 10:34:41;;;;;;;1.98;1.42;;;20.50;99.90;;;;;;5104832;28;20111;-80
2021/08/10 10:37:08;;;;;;;1.00;0.90;;;20.10;99.90;;;;;;5104193;28;20082;-79
2021/08/10 10:39:37;;;;;;;1.50;1.40;;;19.60;99.90;;;;;;5077230;28;20039;-79
2021/08/10 10:42:08;;;;;;;3.85;2.05;;;19.20;99.90;;;;;;5099995;28;20036;-82
2021/08/10 10:44:43;;;;;;;4.03;1.75;;;19.00;99.90;;;;;;5103820;28;20036;-83
2021/08/10 10:47:21;;;;;;;1.92;1.30;;;18.60;99.90;;;;;;5103155;28;20032;-84
2021/08/10 10:50:11;;;;;;;1.52;1.20;;;18.00;99.90;;;;;;5106222;28;20126;-84
2021/08/10 10:52:37;;;;;;;3.70;2.13;;;17.50;99.90;;;;;;5107282;28;20089;-86
2021/08/10 10:55:05;;;;;;;3.88;1.73;;;17.10;99.90;;;;;;5102872;28;20036;-84
2021/08/10 10:57:32;;;;;;;2.97;2.00;;;16.80;99.90;;;;;;5106522;28;20048;-84
2021/08/10 11:00:21;;;;;;;1.55;1.38;;;16.50;99.90;;;;;;5114663;28;20039;-83
2021/08/10 11:03:10;;;;;;;3.22;1.60;;;16.40;99.90;;;;;;5107869;28;20081;-81
2021/08/10 11:05:36;;;;;;;2.85;2.53;;;16.40;99.90;;;;;;5084043;28;20042;-87
2021/08/10 11:08:03;;;;;;;1.70;1.60;;;16.40;99.90;;;;;;5098542;28;20048;-85
2021/08/10 11:10:42;;;;;;;3.50;2.25;;;16.60;99.90;;;;;;5095186;28;20041;-86
2021/08/10 11:13:21;;;;;;;1.13;1.00;;;16.70;99.90;;;;;;5090545;28;20036;-83
2021/08/10 11:15:46;;;;;;;3.05;2.13;;;16.70;99.90;;;;;;5087837;28;20157;-83
2021/08/10 11:18:12;;;;;;;1.85;1.67;;;16.70;99.90;;;;;;5110540;28;20142;-83
2021/08/10 11:20:50;;;;;;;1.55;1.45;;;16.80;99.90;;;;;;5093110;28;20536;-81
2021/08/10 11:23:22;;;;;;;2.90;2.20;;;16.80;99.90;;;;;;5110948;27;20362;-78
2021/08/10 11:25:53;;;;;;;9.63;1.98;;;16.80;99.90;;;;;;5087486;28;20051;-83
2021/08/10 11:28:31;;;;;;;4.20;2.10;;;16.80;99.90;;;;;;5100463;28;20124;-84
2021/08/10 11:31:03;;;;;;;1.73;1.60;;;16.80;99.90;;;;;;5104211;28;20177;-82
2021/08/10 11:33:35;;;;;;;2.55;1.42;;;16.80;99.90;;;;;;5083256;28;20036;-83
2021/08/10 11:36:13;;;;;;;2.60;1.85;;;16.80;99.90;;;;;;5070818;28;20096;-84
2021/08/10 11:38:45;;;;;;;2.60;1.77;;;16.90;99.90;;;;;;5107538;28;20048;-81
2021/08/10 11:41:15;;;;;;;3.33;2.50;;;16.90;99.90;;;;;;5107507;28;20144;-80
2021/08/10 11:43:49;;;;;;;3.58;1.58;;;16.90;99.90;;;;;;5098149;28;20041;-79
2021/08/10 11:46:25;;;;;;;2.55;1.98;;;16.90;99.90;;;;;;5100849;28;20414;-79
2021/08/10 11:49:00;;;;;;;2.85;2.05;;;17.10;99.90;;;;;;5103786;28;20397;-82
2021/08/10 11:51:25;;;;;;;2.17;1.88;;;17.30;99.90;;;;;;5078063;28;20478;-80
2021/08/10 11:53:57;;;;;;;2.40;1.50;;;17.60;99.90;;;;;;5098961;28;20116;-79
2021/08/10 11:56:32;;;;;;;4.03;2.40;;;17.90;99.90;;;;;;5093310;28;20105;-82
2021/08/10 11:59:00;;;;;;;2.87;1.93;;;18.30;99.90;;;;;;5122020;27;20044;-80
2021/08/10 12:01:29;;;;;;;5.88;2.42;;;18.70;99.90;;;;;;5085350;28;20043;-81
2021/08/10 12:04:07;;;;;;;2.80;1.85;;;18.90;99.90;;;;;;5087686;28;20035;-79
2021/08/10 12:06:32;;;;;;;1.98;1.52;;;19.00;99.90;;;;;;5100951;28;20370;-78
2021/08/10 12:09:09;;;;;;;;;;;18.90;99.90;;;;;;5103995;28;20055;-79
2021/08/10 12:11:35;;;;;;;1.92;1.73;;;18.90;99.90;;;;;;5084743;28;19924;-81
2021/08/10 12:14:11;;;;;;;1.92;1.73;;;19.00;99.90;;;;;;5078407;28;20040;-78
2021/08/10 12:16:38;;;;;;;2.28;1.75;;;19.20;99.90;;;;;;5099805;28;20032;-78
2021/08/10 12:19:04;;;;;;;3.13;2.10;;;19.30;99.90;;;;;;5101354;28;20040;-79
2021/08/10 12:21:42;;;;;;;1.58;1.48;;;19.30;99.90;;;;;;5111181;28;20446;-78
2021/08/10 12:24:24;;;;;;;2.53;1.45;;;19.30;99.90;;;;;;5107875;27;20043;-79
2021/08/10 12:26:51;;;;;;;1.20;1.02;;;19.10;99.90;;;;;;5085426;28;20043;-80
2021/08/10 12:29:17;;;;;;;1.83;1.20;;;19.00;99.90;;;;;;5107548;28;20058;-79
2021/08/10 12:31:45;;;;;;;3.25;1.40;;;19.20;99.90;;;;;;5114166;27;20652;-78
2021/08/10 12:34:11;;;;;;;1.60;1.30;;;19.20;99.90;;;;;;5109988;28;20088;-79
2021/08/10 12:36:52;;;;;;;3.22;1.65;;;19.40;99.90;;;;;;5094649;28;20431;-79
2021/08/10 12:39:19;;;;;;;1.30;1.20;;;19.70;99.90;;;;;;5091655;28;20039;-78
2021/08/10 12:41:46;;;;;;;3.22;1.40;;;19.80;99.90;;;;;;5107775;28;20054;-78
2021/08/10 12:44:12;;;;;;;2.42;1.42;;;19.80;99.90;;;;;;5087380;28;20127;-78
2021/08/10 12:46:39;;;;;;;1.90;1.42;;;19.70;99.90;;;;;;5071364;28;20055;-78
2021/08/10 12:49:10;;;;;;;3.85;1.40;;;19.70;99.90;;;;;;5100412;28;20055;-78
2021/08/10 12:52:05;;;;;;;1.92;1.58;;;19.80;99.90;;;;;;5091455;28;20039;-78
2021/08/10 12:54:34;;;;;;;1.25;1.15;;;20.00;99.90;;;;;;5091561;28;20161;-78
2021/08/10 12:57:02;;;;;;;1.80;1.40;;;20.20;99.90;;;;;;5104522;28;20039;-78
2021/08/10 12:59:48;;;;;;;1.40;1.27;;;20.40;99.90;;;;;;5109444;28;20051;-79
2021/08/10 13:02:43;;;;;;;2.38;1.65;;;20.60;99.90;;;;;;5108096;28;20454;-78